createdAt,value
2023-04-22T00:00:44.063Z,10.52
2023-04-22T00:01:46.316Z,10.50
2023-04-22T00:02:48.838Z,10.48
2023-04-22T00:03:52.336Z,10.47
2023-04-22T00:04:55.297Z,10.45
2023-04-22T00:05:57.837Z,10.45
2023-04-22T00:07:00.624Z,10.43
2023-04-22T00:08:03.479Z,10.42
2023-04-22T00:09:06.189Z,10.41
2023-04-22T00:10:09.986Z,10.38
2023-04-22T00:11:13.764Z,10.36
2023-04-22T00:12:16.048Z,10.33
2023-04-22T00:13:18.476Z,10.31
2023-04-22T00:14:20.694Z,10.30
2023-04-22T00:15:22.980Z,10.27
2023-04-22T00:16:26.493Z,10.27
2023-04-22T00:17:28.803Z,10.23
2023-04-22T00:18:31.148Z,10.22
2023-04-22T00:19:33.727Z,10.18
2023-04-22T00:20:36.611Z,10.17
2023-04-22T00:21:39.043Z,10.15
2023-04-22T00:22:41.429Z,10.13
2023-04-22T00:23:45.497Z,10.11
2023-04-22T00:24:48.089Z,10.10
2023-04-22T00:25:51.265Z,10.07
2023-04-22T00:26:53.526Z,10.06
2023-04-22T00:27:55.752Z,10.03
2023-04-22T00:28:58.098Z,10.02
2023-04-22T00:30:00.484Z,10.02
2023-04-22T00:31:04.941Z,9.99
2023-04-22T00:32:07.195Z,9.98
2023-04-22T00:33:09.664Z,9.98
2023-04-22T00:34:12.153Z,9.97
2023-04-22T00:35:14.448Z,9.96
2023-04-22T00:36:16.780Z,9.96
2023-04-22T00:37:19.006Z,9.95
2023-04-22T00:38:22.344Z,9.93
2023-04-22T00:39:24.679Z,9.92
2023-04-22T00:40:27.298Z,9.89
2023-04-22T00:41:31.297Z,9.88
2023-04-22T00:42:33.659Z,9.88
2023-04-22T00:43:36.226Z,9.87
2023-04-22T00:44:39.404Z,9.86
2023-04-22T00:45:43.073Z,9.86
2023-04-22T00:46:46.320Z,9.85
2023-04-22T00:47:49.267Z,9.83
2023-04-22T00:48:52.651Z,9.81
2023-04-22T00:49:55.328Z,9.80
2023-04-22T00:50:57.620Z,9.78
2023-04-22T00:51:59.937Z,9.77
2023-04-22T00:53:02.167Z,9.76
2023-04-22T00:54:06.189Z,9.74
2023-04-22T00:55:08.762Z,9.73
2023-04-22T00:56:12.199Z,9.71
2023-04-22T00:57:14.927Z,9.69
2023-04-22T00:58:19.160Z,9.69
2023-04-22T00:59:23.587Z,9.68
2023-04-22T01:00:27.549Z,9.66
2023-04-22T01:01:30.809Z,9.66
2023-04-22T01:02:33.646Z,9.65
2023-04-22T01:03:39.275Z,9.63
2023-04-22T01:04:41.956Z,9.61
2023-04-22T01:05:45.283Z,9.60
2023-04-22T01:06:47.860Z,9.59
2023-04-22T01:07:51.338Z,9.59
2023-04-22T01:08:54.247Z,9.57
2023-04-22T01:09:57.611Z,9.57
2023-04-22T01:11:01.154Z,9.55
2023-04-22T01:12:03.550Z,9.54
2023-04-22T01:13:06.075Z,9.54
2023-04-22T01:14:08.525Z,9.54
2023-04-22T01:15:11.658Z,9.53
2023-04-22T01:16:14.035Z,9.52
2023-04-22T01:17:16.876Z,9.51
2023-04-22T01:18:19.552Z,9.51
2023-04-22T01:19:22.199Z,9.49
2023-04-22T01:20:25.341Z,9.49
2023-04-22T01:21:28.230Z,9.49
2023-04-22T01:22:36.487Z,9.48
2023-04-22T01:23:38.847Z,9.48
2023-04-22T01:24:42.292Z,9.46
2023-04-22T01:25:44.706Z,9.46
2023-04-22T01:26:48.123Z,9.45
2023-04-22T01:27:50.758Z,9.47
2023-04-22T01:28:53.140Z,9.45
2023-04-22T01:29:55.804Z,9.44
2023-04-22T01:30:58.272Z,9.43
2023-04-22T01:32:00.878Z,9.42
2023-04-22T01:33:05.513Z,9.43
2023-04-22T01:34:07.927Z,9.42
2023-04-22T01:35:10.754Z,9.42
2023-04-22T01:36:13.342Z,9.41
2023-04-22T01:37:15.678Z,9.41
2023-04-22T01:38:18.476Z,9.41
2023-04-22T01:39:20.797Z,9.40
2023-04-22T01:40:23.524Z,9.40
2023-04-22T01:41:25.973Z,9.39
2023-04-22T01:42:28.488Z,9.38
2023-04-22T01:43:31.103Z,9.38
2023-04-22T01:44:33.361Z,9.37
2023-04-22T01:45:37.721Z,9.34
2023-04-22T01:46:40.421Z,9.35
2023-04-22T01:47:42.972Z,9.31
2023-04-22T01:48:50.562Z,9.30
2023-04-22T01:49:53.120Z,9.29
2023-04-22T01:50:55.629Z,9.27
2023-04-22T01:52:01.050Z,9.26
2023-04-22T01:53:03.480Z,9.24
2023-04-22T01:54:06.160Z,9.23
2023-04-22T01:55:09.221Z,9.23
2023-04-22T01:56:11.607Z,9.21
2023-04-22T01:57:14.683Z,9.20
2023-04-22T01:58:17.183Z,9.18
2023-04-22T01:59:21.258Z,9.18
2023-04-22T02:00:25.996Z,9.15
2023-04-22T02:01:28.345Z,9.14
2023-04-22T02:02:30.749Z,9.12
2023-04-22T02:03:33.191Z,9.10
2023-04-22T02:04:35.991Z,9.09
2023-04-22T02:05:38.453Z,9.07
2023-04-22T02:06:40.901Z,9.06
2023-04-22T02:07:43.253Z,9.04
2023-04-22T02:08:45.581Z,9.03
2023-04-22T02:09:50.773Z,9.01
2023-04-22T02:10:53.214Z,8.98
2023-04-22T02:11:55.498Z,8.98
2023-04-22T02:12:58.237Z,8.95
2023-04-22T02:14:00.558Z,8.95
2023-04-22T02:15:03.415Z,8.95
2023-04-22T02:16:06.412Z,8.93
2023-04-22T02:17:08.740Z,8.92
2023-04-22T02:18:11.446Z,8.91
2023-04-22T02:19:13.795Z,8.92
2023-04-22T02:20:16.219Z,8.91
2023-04-22T02:21:20.238Z,8.91
2023-04-22T02:22:23.871Z,8.90
2023-04-22T02:23:27.786Z,8.89
2023-04-22T02:24:30.175Z,8.87
2023-04-22T02:25:33.951Z,8.87
2023-04-22T02:26:36.391Z,8.85
2023-04-22T02:27:39.546Z,8.84
2023-04-22T02:28:42.912Z,8.84
2023-04-22T02:29:46.106Z,8.83
2023-04-22T02:30:48.983Z,8.82
2023-04-22T02:31:51.340Z,8.83
2023-04-22T02:32:53.925Z,8.83
2023-04-22T02:33:56.280Z,8.83
2023-04-22T02:34:58.532Z,8.81
2023-04-22T02:36:00.804Z,8.81
2023-04-22T02:37:03.493Z,8.78
2023-04-22T02:38:06.076Z,8.79
2023-04-22T02:39:08.398Z,8.78
2023-04-22T02:40:11.641Z,8.78
2023-04-22T02:41:13.852Z,8.77
2023-04-22T02:42:17.501Z,8.76
2023-04-22T02:43:19.754Z,8.77
2023-04-22T02:44:23.484Z,8.77
2023-04-22T02:45:25.812Z,8.74
2023-04-22T02:46:28.207Z,8.75
2023-04-22T02:47:31.416Z,8.74
2023-04-22T02:48:33.696Z,8.76
2023-04-22T02:49:36.069Z,8.75
2023-04-22T02:50:38.736Z,8.74
2023-04-22T02:51:41.093Z,8.72
2023-04-22T02:52:43.419Z,8.72
2023-04-22T02:53:45.649Z,8.72
2023-04-22T02:54:50.191Z,8.71
2023-04-22T02:55:52.612Z,8.70
2023-04-22T02:56:54.943Z,8.70
2023-04-22T02:57:57.218Z,8.69
2023-04-22T02:58:59.594Z,8.68
2023-04-22T03:00:02.108Z,8.69
2023-04-22T03:01:04.731Z,8.69
2023-04-22T03:02:07.208Z,8.68
2023-04-22T03:03:20.217Z,8.67
2023-04-22T03:04:22.770Z,8.65
2023-04-22T03:05:25.465Z,8.65
2023-04-22T03:06:27.974Z,8.65
2023-04-22T03:07:30.414Z,8.64
2023-04-22T03:08:33.392Z,8.65
2023-04-22T03:09:35.725Z,8.62
2023-04-22T03:10:37.978Z,8.62
2023-04-22T03:11:40.261Z,8.62
2023-04-22T03:12:42.571Z,8.62
2023-04-22T03:13:44.887Z,8.61
2023-04-22T03:14:47.419Z,8.60
2023-04-22T03:15:50.277Z,8.57
2023-04-22T03:16:52.997Z,8.58
2023-04-22T03:17:55.614Z,8.58
2023-04-22T03:18:59.166Z,8.57
2023-04-22T03:20:01.663Z,8.55
2023-04-22T03:21:04.960Z,8.56
2023-04-22T03:22:07.264Z,8.56
2023-04-22T03:23:09.631Z,8.54
2023-04-22T03:24:12.907Z,8.55
2023-04-22T03:25:20.276Z,8.52
2023-04-22T03:26:27.684Z,8.52
2023-04-22T03:27:30.245Z,8.51
2023-04-22T03:28:32.612Z,8.50
2023-04-22T03:29:35.017Z,8.49
2023-04-22T03:30:37.371Z,8.49
2023-04-22T03:31:39.860Z,8.50
2023-04-22T03:32:42.240Z,8.50
2023-04-22T03:33:57.428Z,8.49
2023-04-22T03:35:03.716Z,8.48
2023-04-22T03:36:06.289Z,8.48
2023-04-22T03:37:09.376Z,8.47
2023-04-22T03:38:11.946Z,8.48
2023-04-22T03:39:14.234Z,8.47
2023-04-22T03:40:30.172Z,8.45
2023-04-22T03:41:33.574Z,8.46
2023-04-22T03:42:36.332Z,8.44
2023-04-22T03:43:38.759Z,8.43
2023-04-22T03:44:43.805Z,8.43
2023-04-22T03:45:47.389Z,8.43
2023-04-22T03:46:54.565Z,8.42
2023-04-22T03:48:00.459Z,8.43
2023-04-22T03:49:12.088Z,8.42
2023-04-22T03:50:14.421Z,8.39
2023-04-22T03:51:16.822Z,8.39
2023-04-22T03:52:19.117Z,8.40
2023-04-22T03:53:29.687Z,8.37
2023-04-22T03:54:32.103Z,8.37
2023-04-22T03:55:35.084Z,8.35
2023-04-22T03:56:37.533Z,8.35
2023-04-22T03:57:41.163Z,8.35
2023-04-22T03:58:44.731Z,8.34
2023-04-22T03:59:46.988Z,8.31
2023-04-22T04:00:49.357Z,8.32
2023-04-22T04:01:54.353Z,8.32
2023-04-22T04:03:00.875Z,8.31
2023-04-22T04:04:03.797Z,8.30
2023-04-22T04:05:17.933Z,8.29
2023-04-22T04:06:20.363Z,8.29
2023-04-22T04:07:22.774Z,8.27
2023-04-22T04:08:26.939Z,8.28
2023-04-22T04:09:29.292Z,8.26
2023-04-22T04:10:33.563Z,8.26
2023-04-22T04:11:36.689Z,8.24
2023-04-22T04:12:39.705Z,8.25
2023-04-22T04:13:42.153Z,8.25
2023-04-22T04:14:53.129Z,8.22
2023-04-22T04:15:58.784Z,8.22
2023-04-22T04:17:04.256Z,8.20
2023-04-22T04:18:09.941Z,8.22
2023-04-22T04:19:12.670Z,8.22
2023-04-22T04:20:16.327Z,8.21
2023-04-22T04:21:18.704Z,8.21
2023-04-22T04:22:25.041Z,8.21
2023-04-22T04:23:32.683Z,8.20
2023-04-22T04:24:36.839Z,8.20
2023-04-22T04:25:46.416Z,8.22
2023-04-22T04:26:49.680Z,8.20
2023-04-22T04:27:59.187Z,8.21
2023-04-22T04:29:02.003Z,8.20
2023-04-22T04:30:05.178Z,8.20
2023-04-22T04:31:19.961Z,8.20
2023-04-22T04:32:24.126Z,8.20
2023-04-22T04:33:27.310Z,8.19
2023-04-22T04:34:29.636Z,8.20
2023-04-22T04:35:37.710Z,8.20
2023-04-22T04:36:43.972Z,8.18
2023-04-22T04:37:54.035Z,8.19
2023-04-22T04:38:56.978Z,8.18
2023-04-22T04:40:00.520Z,8.19
2023-04-22T04:41:12.759Z,8.19
2023-04-22T04:42:15.476Z,8.21
2023-04-22T04:43:28.177Z,8.22
2023-04-22T04:44:37.946Z,8.24
2023-04-22T04:45:48.439Z,8.25
2023-04-22T04:46:55.042Z,8.25
2023-04-22T04:47:58.637Z,8.28
2023-04-22T04:49:07.489Z,8.28
2023-04-22T04:50:16.676Z,8.31
2023-04-22T04:51:20.563Z,8.33
2023-04-22T04:52:32.475Z,8.36
2023-04-22T04:53:35.309Z,8.38
2023-04-22T04:54:38.162Z,8.41
2023-04-22T04:55:41.047Z,8.44
2023-04-22T04:56:51.635Z,8.47
2023-04-22T04:57:54.298Z,8.51
2023-04-22T04:58:56.698Z,8.56
2023-04-22T05:00:03.162Z,8.61
2023-04-22T05:01:06.443Z,8.65
2023-04-22T05:02:11.536Z,8.68
2023-04-22T05:03:14.147Z,8.75
2023-04-22T05:04:17.019Z,8.80
2023-04-22T05:05:19.884Z,8.85
2023-04-22T05:06:22.555Z,8.92
2023-04-22T05:07:30.393Z,8.99
2023-04-22T05:08:33.907Z,9.04
2023-04-22T05:09:42.007Z,9.14
2023-04-22T05:10:45.332Z,9.20
2023-04-22T05:11:48.202Z,9.27
2023-04-22T05:12:54.827Z,9.36
2023-04-22T05:14:00.522Z,9.42
2023-04-22T05:15:08.177Z,9.51
2023-04-22T05:16:10.834Z,9.59
2023-04-22T05:17:14.621Z,9.67
2023-04-22T05:18:17.995Z,9.75
2023-04-22T05:19:20.409Z,9.83
2023-04-22T05:20:23.864Z,9.92
2023-04-22T05:21:26.141Z,10.00
2023-04-22T05:22:29.250Z,10.08
2023-04-22T05:23:31.810Z,10.17
2023-04-22T05:24:36.851Z,10.26
2023-04-22T05:25:39.789Z,10.34
2023-04-22T05:26:46.382Z,10.46
2023-04-22T05:27:52.448Z,10.55
2023-04-22T05:28:55.431Z,10.65
2023-04-22T05:29:58.385Z,10.75
2023-04-22T05:31:05.003Z,10.83
2023-04-22T05:32:09.101Z,10.92
2023-04-22T05:33:11.511Z,11.01
2023-04-22T05:34:14.505Z,11.11
2023-04-22T05:35:16.935Z,11.21
2023-04-22T05:36:19.285Z,11.29
2023-04-22T05:37:24.111Z,11.39
2023-04-22T05:38:26.855Z,11.48
2023-04-22T05:39:31.363Z,11.59
2023-04-22T05:40:36.014Z,11.69
2023-04-22T05:41:39.891Z,11.80
2023-04-22T05:42:45.177Z,11.94
2023-04-22T05:43:47.621Z,12.05
2023-04-22T05:44:53.001Z,12.16
2023-04-22T05:45:55.648Z,12.27
2023-04-22T05:46:58.007Z,12.38
2023-04-22T05:48:02.516Z,12.50
2023-04-22T05:49:08.883Z,12.58
2023-04-22T05:50:31.055Z,12.72
2023-04-22T05:51:40.150Z,12.81
2023-04-22T05:52:44.080Z,12.92
2023-04-22T05:53:50.181Z,13.05
2023-04-22T05:54:53.905Z,13.14
2023-04-22T05:55:56.725Z,13.24
2023-04-22T05:56:59.871Z,13.36
2023-04-22T05:58:02.290Z,13.46
2023-04-22T05:59:25.499Z,13.61
2023-04-22T06:00:28.172Z,13.72
2023-04-22T06:01:46.133Z,13.84
2023-04-22T06:02:52.237Z,13.96
2023-04-22T06:03:55.118Z,14.07
2023-04-22T06:04:58.938Z,14.18
2023-04-22T06:06:02.675Z,14.29
2023-04-22T06:07:05.098Z,14.42
2023-04-22T06:08:07.461Z,14.52
2023-04-22T06:09:10.965Z,14.64
2023-04-22T06:10:15.960Z,14.75
2023-04-22T06:11:18.338Z,14.87
2023-04-22T06:12:20.654Z,14.98
2023-04-22T06:13:24.022Z,15.09
2023-04-22T06:14:26.857Z,15.21
2023-04-22T06:15:30.137Z,15.33
2023-04-22T06:16:34.306Z,15.44
2023-04-22T06:17:36.824Z,15.56
2023-04-22T06:18:39.984Z,15.67
2023-04-22T06:19:46.366Z,15.80
2023-04-22T06:20:48.975Z,15.92
2023-04-22T06:21:51.640Z,16.04
2023-04-22T06:22:53.922Z,16.16
2023-04-22T06:23:56.396Z,16.27
2023-04-22T06:24:58.735Z,16.38
2023-04-22T06:26:02.117Z,16.50
2023-04-22T06:27:05.373Z,16.59
2023-04-22T06:28:07.708Z,16.70
2023-04-22T06:29:11.127Z,16.77
2023-04-22T06:30:15.062Z,16.87
2023-04-22T06:31:18.886Z,16.96
2023-04-22T06:32:22.927Z,17.07
2023-04-22T06:33:25.277Z,17.18
2023-04-22T06:34:27.546Z,17.30
2023-04-22T06:35:29.841Z,17.43
2023-04-22T06:36:33.961Z,17.55
2023-04-22T06:37:37.854Z,17.69
2023-04-22T06:38:42.612Z,17.82
2023-04-22T06:40:04.190Z,17.97
2023-04-22T06:41:25.057Z,18.11
2023-04-22T06:42:30.621Z,18.23
2023-04-22T06:43:51.472Z,18.38
2023-04-22T06:44:53.697Z,18.50
2023-04-22T06:46:12.306Z,18.66
2023-04-22T06:47:26.956Z,18.78
2023-04-22T06:48:35.441Z,18.88
2023-04-22T06:49:56.080Z,19.00
2023-04-22T06:51:05.886Z,19.11
2023-04-22T06:52:08.195Z,19.19
2023-04-22T06:53:10.798Z,19.28
2023-04-22T06:54:13.121Z,19.34
2023-04-22T06:55:15.354Z,19.39
2023-04-22T06:56:18.178Z,19.47
2023-04-22T06:57:20.459Z,19.57
2023-04-22T06:58:22.766Z,19.66
2023-04-22T06:59:25.447Z,19.72
2023-04-22T07:00:28.433Z,19.77
2023-04-22T07:01:30.841Z,19.88
2023-04-22T07:02:35.810Z,19.97
2023-04-22T07:03:38.566Z,20.06
2023-04-22T07:04:44.845Z,20.11
2023-04-22T07:05:48.884Z,20.16
2023-04-22T07:06:51.311Z,20.22
2023-04-22T07:07:53.878Z,20.29
2023-04-22T07:08:58.589Z,20.37
2023-04-22T07:10:01.306Z,20.47
2023-04-22T07:11:12.546Z,20.56
2023-04-22T07:12:25.896Z,20.66
2023-04-22T07:13:28.183Z,20.72
2023-04-22T07:14:30.493Z,20.82
2023-04-22T07:15:32.775Z,20.94
2023-04-22T07:16:35.149Z,21.01
2023-04-22T07:17:37.434Z,21.10
2023-04-22T07:18:40.211Z,21.18
2023-04-22T07:19:42.560Z,21.26
2023-04-22T07:20:44.838Z,21.35
2023-04-22T07:21:47.283Z,21.45
2023-04-22T07:22:49.596Z,21.53
2023-04-22T07:23:52.126Z,21.59
2023-04-22T07:24:54.477Z,21.65
2023-04-22T07:25:56.890Z,21.69
2023-04-22T07:26:59.143Z,21.75
2023-04-22T07:28:01.480Z,21.83
2023-04-22T07:29:04.221Z,21.90
2023-04-22T07:30:08.383Z,21.97
2023-04-22T07:31:10.923Z,22.03
2023-04-22T07:32:13.173Z,22.08
2023-04-22T07:33:15.461Z,22.13
2023-04-22T07:34:18.594Z,22.22
2023-04-22T07:35:20.827Z,22.27
2023-04-22T07:36:23.066Z,22.33
2023-04-22T07:37:25.955Z,22.37
2023-04-22T07:38:28.417Z,22.41
2023-04-22T07:39:30.663Z,22.45
2023-04-22T07:40:32.947Z,22.48
2023-04-22T07:41:36.088Z,22.49
2023-04-22T07:42:41.488Z,22.56
2023-04-22T07:43:43.720Z,22.56
2023-04-22T07:44:46.028Z,22.61
2023-04-22T07:45:48.453Z,22.67
2023-04-22T07:46:50.971Z,22.71
2023-04-22T07:47:53.241Z,22.73
2023-04-22T07:48:55.562Z,22.79
2023-04-22T07:49:57.868Z,22.82
2023-04-22T07:51:00.123Z,22.83
2023-04-22T07:52:02.450Z,22.86
2023-04-22T07:53:04.736Z,22.85
2023-04-22T07:54:07.595Z,22.88
2023-04-22T07:55:10.049Z,22.91
2023-04-22T07:56:13.208Z,22.90
2023-04-22T07:57:15.414Z,22.94
2023-04-22T07:58:20.438Z,22.97
2023-04-22T07:59:22.668Z,22.99
2023-04-22T08:00:24.938Z,23.00
2023-04-22T08:01:27.372Z,23.00
2023-04-22T08:02:29.756Z,23.00
2023-04-22T08:03:32.240Z,23.01
2023-04-22T08:04:35.210Z,23.03
2023-04-22T08:05:37.529Z,23.08
2023-04-22T08:06:39.906Z,23.08
2023-04-22T08:07:42.378Z,23.09
2023-04-22T08:08:44.631Z,23.13
2023-04-22T08:09:46.987Z,23.17
2023-04-22T08:10:49.483Z,23.19
2023-04-22T08:11:52.781Z,23.25
2023-04-22T08:12:55.144Z,23.27
2023-04-22T08:13:57.460Z,23.31
2023-04-22T08:14:59.753Z,23.33
2023-04-22T08:16:03.598Z,23.35
2023-04-22T08:17:06.285Z,23.38
2023-04-22T08:18:08.565Z,23.39
2023-04-22T08:19:11.131Z,23.39
2023-04-22T08:20:15.618Z,23.41
2023-04-22T08:21:17.935Z,23.43
2023-04-22T08:22:20.238Z,23.46
2023-04-22T08:23:22.717Z,23.50
2023-04-22T08:24:25.044Z,23.53
2023-04-22T08:25:28.067Z,23.56
2023-04-22T08:26:30.665Z,23.58
2023-04-22T08:27:32.922Z,23.63
2023-04-22T08:28:35.632Z,23.64
2023-04-22T08:29:38.370Z,23.67
2023-04-22T08:30:41.191Z,23.70
2023-04-22T08:31:43.500Z,23.74
2023-04-22T08:32:46.268Z,23.78
2023-04-22T08:33:48.824Z,23.81
2023-04-22T08:34:52.056Z,23.86
2023-04-22T08:35:56.391Z,23.90
2023-04-22T08:36:58.848Z,23.95
2023-04-22T08:38:01.194Z,23.99
2023-04-22T08:39:03.510Z,24.03
2023-04-22T08:40:06.879Z,24.06
2023-04-22T08:41:10.232Z,24.11
2023-04-22T08:42:13.492Z,24.14
2023-04-22T08:43:16.111Z,24.17
2023-04-22T08:44:19.472Z,24.23
2023-04-22T08:45:22.235Z,24.28
2023-04-22T08:46:25.933Z,24.30
2023-04-22T08:47:29.039Z,24.34
2023-04-22T08:48:32.733Z,24.36
2023-04-22T08:49:38.191Z,24.40
2023-04-22T08:50:41.509Z,24.44
2023-04-22T08:51:45.032Z,24.44
2023-04-22T08:52:47.309Z,24.47
2023-04-22T08:53:50.074Z,24.50
2023-04-22T08:54:52.882Z,24.50
2023-04-22T08:55:56.862Z,24.48
2023-04-22T08:57:01.485Z,24.51
2023-04-22T08:58:06.409Z,24.56
2023-04-22T08:59:13.529Z,24.56
2023-04-22T09:00:16.653Z,24.58
2023-04-22T09:01:19.239Z,24.60
2023-04-22T09:02:23.604Z,24.64
2023-04-22T09:03:26.765Z,24.64
2023-04-22T09:04:29.345Z,24.66
2023-04-22T09:05:35.387Z,24.64
2023-04-22T09:06:39.137Z,24.65
2023-04-22T09:07:41.674Z,24.64
2023-04-22T09:08:43.965Z,24.62
2023-04-22T09:09:46.263Z,24.61
2023-04-22T09:10:48.917Z,24.62
2023-04-22T09:11:51.121Z,24.62
2023-04-22T09:12:54.603Z,24.62
2023-04-22T09:13:56.900Z,24.60
2023-04-22T09:14:59.236Z,24.60
2023-04-22T09:16:01.578Z,24.62
2023-04-22T09:17:04.050Z,24.63
2023-04-22T09:18:09.594Z,24.61
2023-04-22T09:19:13.436Z,24.59
2023-04-22T09:20:17.898Z,24.51
2023-04-22T09:21:20.310Z,24.54
2023-04-22T09:22:22.623Z,24.51
2023-04-22T09:23:25.344Z,24.47
2023-04-22T09:24:27.747Z,24.46
2023-04-22T09:25:30.021Z,24.44
2023-04-22T09:26:32.473Z,24.41
2023-04-22T09:27:35.679Z,24.40
2023-04-22T09:28:38.022Z,24.40
2023-04-22T09:29:48.993Z,24.41
2023-04-22T09:30:51.304Z,24.41
2023-04-22T09:31:53.805Z,24.43
2023-04-22T09:32:58.378Z,24.42
2023-04-22T09:34:01.453Z,24.42
2023-04-22T09:35:04.252Z,24.42
2023-04-22T09:36:09.859Z,24.36
2023-04-22T09:37:12.843Z,24.35
2023-04-22T09:38:15.075Z,24.34
2023-04-22T09:39:17.435Z,24.29
2023-04-22T09:40:20.213Z,24.30
2023-04-22T09:41:36.909Z,24.28
2023-04-22T09:42:51.654Z,24.22
2023-04-22T09:43:56.655Z,24.20
2023-04-22T09:45:01.196Z,24.21
2023-04-22T09:46:04.321Z,24.22
2023-04-22T09:47:06.845Z,24.18
2023-04-22T09:48:14.644Z,24.17
2023-04-22T09:49:17.468Z,24.14
2023-04-22T09:50:25.275Z,24.13
2023-04-22T09:51:28.736Z,24.09
2023-04-22T09:52:33.099Z,24.08
2023-04-22T09:53:37.627Z,24.09
2023-04-22T09:54:40.037Z,24.05
2023-04-22T09:55:45.037Z,24.04
2023-04-22T09:56:49.626Z,24.04
2023-04-22T09:57:54.131Z,24.03
2023-04-22T09:58:56.331Z,23.99
2023-04-22T09:59:59.128Z,23.99
2023-04-22T10:01:03.447Z,23.90
2023-04-22T10:02:07.289Z,23.88
2023-04-22T10:03:10.688Z,23.87
2023-04-22T10:04:15.205Z,23.88
2023-04-22T10:05:18.622Z,23.86
2023-04-22T10:06:21.961Z,23.85
2023-04-22T10:07:24.681Z,23.81
2023-04-22T10:08:27.082Z,23.77
2023-04-22T10:09:29.455Z,23.78
2023-04-22T10:10:32.506Z,23.78
2023-04-22T10:11:34.806Z,23.76
2023-04-22T10:12:37.578Z,23.76
2023-04-22T10:13:39.888Z,23.74
2023-04-22T10:14:42.697Z,23.73
2023-04-22T10:15:50.575Z,23.71
2023-04-22T10:16:58.266Z,23.68
2023-04-22T10:18:01.939Z,23.68
2023-04-22T10:19:07.494Z,23.68
2023-04-22T10:20:13.955Z,23.66
2023-04-22T10:21:18.838Z,23.61
2023-04-22T10:22:21.357Z,23.56
2023-04-22T10:23:24.972Z,23.54
2023-04-22T10:24:30.108Z,23.46
2023-04-22T10:25:32.618Z,23.44
2023-04-22T10:26:51.719Z,23.41
2023-04-22T10:28:05.674Z,23.35
2023-04-22T10:29:11.071Z,23.29
2023-04-22T10:30:27.293Z,23.22
2023-04-22T10:31:29.533Z,23.21
2023-04-22T10:32:33.375Z,23.20
2023-04-22T10:33:36.698Z,23.19
2023-04-22T10:34:41.710Z,23.17
2023-04-22T10:36:15.770Z,23.15
2023-04-22T10:37:21.891Z,23.17
2023-04-22T10:38:24.135Z,23.17
2023-04-22T10:39:28.488Z,23.15
2023-04-22T10:40:31.234Z,23.13
2023-04-22T10:41:35.261Z,23.10
2023-04-22T10:42:40.594Z,23.11
2023-04-22T10:43:47.931Z,23.08
2023-04-22T10:44:53.176Z,23.04
2023-04-22T10:45:55.513Z,23.03
2023-04-22T10:46:59.693Z,23.03
2023-04-22T10:48:05.151Z,23.02
2023-04-22T10:49:12.121Z,23.03
2023-04-22T10:50:22.383Z,23.01
2023-04-22T10:51:41.017Z,22.98
2023-04-22T10:52:46.426Z,22.92
2023-04-22T10:53:48.691Z,22.89
2023-04-22T10:54:50.952Z,22.85
2023-04-22T10:55:54.039Z,22.81
2023-04-22T10:57:16.417Z,22.79
2023-04-22T10:58:20.505Z,22.79
2023-04-22T10:59:22.877Z,22.78
2023-04-22T11:00:41.755Z,22.76
2023-04-22T11:01:52.741Z,22.77
2023-04-22T11:03:09.057Z,22.73
2023-04-22T11:04:23.557Z,22.74
2023-04-22T11:05:27.779Z,22.69
2023-04-22T11:06:30.535Z,22.69
2023-04-22T11:07:35.081Z,22.69
2023-04-22T11:08:37.304Z,22.70
2023-04-22T11:09:41.024Z,22.69
2023-04-22T11:10:46.455Z,22.70
2023-04-22T11:11:50.381Z,22.70
2023-04-22T11:12:52.951Z,22.69
2023-04-22T11:13:55.747Z,22.65
2023-04-22T11:14:58.002Z,22.63
2023-04-22T11:16:00.799Z,22.63
2023-04-22T11:17:03.051Z,22.60
2023-04-22T11:18:11.097Z,22.62
2023-04-22T11:19:13.436Z,22.59
2023-04-22T11:20:18.906Z,22.60
2023-04-22T11:21:21.614Z,22.57
2023-04-22T11:22:24.800Z,22.53
2023-04-22T11:23:28.678Z,22.49
2023-04-22T11:24:31.106Z,22.45
2023-04-22T11:25:33.358Z,22.44
2023-04-22T11:26:37.843Z,22.42
2023-04-22T11:27:41.545Z,22.38
2023-04-22T11:28:47.810Z,22.28
2023-04-22T11:30:04.713Z,22.25
2023-04-22T11:31:10.511Z,22.22
2023-04-22T11:32:12.857Z,22.23
2023-04-22T11:33:16.708Z,22.25
2023-04-22T11:34:19.010Z,22.20
2023-04-22T11:35:23.526Z,22.21
2023-04-22T11:36:25.892Z,22.17
2023-04-22T11:37:28.883Z,22.15
2023-04-22T11:38:31.518Z,22.16
2023-04-22T11:39:43.569Z,22.16
2023-04-22T11:40:55.292Z,22.15
2023-04-22T11:41:57.528Z,22.17
2023-04-22T11:43:01.652Z,22.17
2023-04-22T11:44:03.926Z,22.18
2023-04-22T11:45:07.478Z,22.19
2023-04-22T11:46:09.717Z,22.19
2023-04-22T11:47:12.848Z,22.17
2023-04-22T11:48:15.764Z,22.18
2023-04-22T11:49:18.443Z,22.19
2023-04-22T11:50:27.153Z,22.17
2023-04-22T11:51:29.418Z,22.16
2023-04-22T11:53:11.518Z,22.16
2023-04-22T11:54:13.737Z,22.10
2023-04-22T11:55:20.057Z,22.08
2023-04-22T11:56:22.678Z,22.08
2023-04-22T11:57:26.791Z,22.07
2023-04-22T11:58:29.026Z,22.05
2023-04-22T11:59:31.304Z,22.03
2023-04-22T12:00:37.466Z,22.03
2023-04-22T12:01:42.305Z,22.04
2023-04-22T12:02:55.885Z,22.01
2023-04-22T12:04:01.529Z,21.98
2023-04-22T12:05:04.229Z,21.97
2023-04-22T12:06:06.746Z,21.92
2023-04-22T12:07:09.168Z,21.93
2023-04-22T12:08:17.384Z,21.90
2023-04-22T12:09:19.644Z,21.83
2023-04-22T12:10:23.536Z,21.81
2023-04-22T12:11:25.859Z,21.78
2023-04-22T12:12:28.514Z,21.78
2023-04-22T12:13:33.384Z,21.79
2023-04-22T12:14:35.962Z,21.77
2023-04-22T12:15:39.867Z,21.76
2023-04-22T12:16:43.230Z,21.77
2023-04-22T12:17:46.565Z,21.77
2023-04-22T12:18:51.264Z,21.77
2023-04-22T12:19:57.352Z,21.73
2023-04-22T12:21:22.026Z,21.69
2023-04-22T12:22:25.925Z,21.69
2023-04-22T12:23:28.661Z,21.70
2023-04-22T12:24:31.101Z,21.68
2023-04-22T12:25:34.127Z,21.66
2023-04-22T12:26:38.108Z,21.66
2023-04-22T12:27:40.453Z,21.66
2023-04-22T12:28:44.713Z,21.66
2023-04-22T12:29:55.395Z,21.66
2023-04-22T12:30:57.670Z,21.64
2023-04-22T12:32:01.013Z,21.65
2023-04-22T12:33:03.363Z,21.63
2023-04-22T12:34:06.354Z,21.65
2023-04-22T12:35:08.805Z,21.66
2023-04-22T12:36:11.290Z,21.63
2023-04-22T12:37:13.816Z,21.63
2023-04-22T12:38:16.243Z,21.63
2023-04-22T12:39:19.123Z,21.62
2023-04-22T12:40:21.350Z,21.61
2023-04-22T12:41:23.917Z,21.61
2023-04-22T12:42:26.163Z,21.58
2023-04-22T12:43:28.433Z,21.57
2023-04-22T12:44:30.674Z,21.56
2023-04-22T12:45:33.028Z,21.56
2023-04-22T12:46:36.233Z,21.53
2023-04-22T12:47:38.716Z,21.55
2023-04-22T12:48:42.997Z,21.53
2023-04-22T12:49:47.254Z,21.51
2023-04-22T12:50:49.803Z,21.50
2023-04-22T12:51:52.419Z,21.51
2023-04-22T12:52:55.479Z,21.49
2023-04-22T12:53:58.514Z,21.50
2023-04-22T12:55:01.095Z,21.49
2023-04-22T12:56:03.514Z,21.51
2023-04-22T12:57:05.774Z,21.52
2023-04-22T12:58:08.111Z,21.51
2023-04-22T12:59:10.402Z,21.50
2023-04-22T13:00:16.463Z,21.50
2023-04-22T13:01:18.719Z,21.52
2023-04-22T13:02:21.406Z,21.53
2023-04-22T13:03:23.870Z,21.54
2023-04-22T13:04:26.530Z,21.56
2023-04-22T13:05:28.912Z,21.57
2023-04-22T13:06:32.613Z,21.56
2023-04-22T13:07:34.863Z,21.57
2023-04-22T13:08:37.166Z,21.55
2023-04-22T13:09:39.623Z,21.53
2023-04-22T13:10:42.035Z,21.54
2023-04-22T13:11:44.599Z,21.57
2023-04-22T13:12:46.819Z,21.55
2023-04-22T13:13:49.038Z,21.54
2023-04-22T13:14:51.343Z,21.54
2023-04-22T13:15:54.565Z,21.56
2023-04-22T13:16:57.730Z,21.56
2023-04-22T13:18:00.069Z,21.56
2023-04-22T13:19:02.327Z,21.55
2023-04-22T13:20:06.421Z,21.57
2023-04-22T13:21:08.897Z,21.54
2023-04-22T13:22:11.233Z,21.56
2023-04-22T13:23:14.539Z,21.54
2023-04-22T13:24:16.855Z,21.54
2023-04-22T13:25:19.288Z,21.54
2023-04-22T13:26:21.634Z,21.55
2023-04-22T13:27:24.089Z,21.56
2023-04-22T13:28:26.407Z,21.56
2023-04-22T13:29:29.125Z,21.57
2023-04-22T13:30:31.431Z,21.57
2023-04-22T13:31:33.756Z,21.57
2023-04-22T13:32:36.190Z,21.54
2023-04-22T13:33:38.461Z,21.53
2023-04-22T13:34:40.785Z,21.50
2023-04-22T13:35:43.239Z,21.50
2023-04-22T13:36:46.006Z,21.51
2023-04-22T13:37:48.274Z,21.53
2023-04-22T13:38:51.395Z,21.53
2023-04-22T13:39:53.634Z,21.53
2023-04-22T13:40:55.866Z,21.54
2023-04-22T13:41:58.797Z,21.54
2023-04-22T13:43:01.416Z,21.53
2023-04-22T13:44:04.722Z,21.54
2023-04-22T13:45:07.697Z,21.50
2023-04-22T13:46:10.089Z,21.53
2023-04-22T13:47:12.752Z,21.53
2023-04-22T13:48:16.199Z,21.54
2023-04-22T13:49:18.391Z,21.52
2023-04-22T13:50:21.097Z,21.49
2023-04-22T13:51:23.392Z,21.50
2023-04-22T13:52:27.228Z,21.51
2023-04-22T13:53:29.636Z,21.51
2023-04-22T13:54:31.908Z,21.50